Nearby METAR Reports

 

KIAG - Niagara Falls, New York, USA
Distance from station: W 12mi, 20km
Updated: 03/24/2019 5:37pm
unable to load KIAG data RC=
unable to load KIAG data RC=
 
KBUF - Buffalo/Cheektow, New York, USA
Distance from station: S 13mi, 21km
Updated: 03/24/2019 4:54pm
Mostly cloudy
Mostly cloudy
 Wind from WSW
Wind: WSW 15 mph , 24 km/h
Temperature: 45°F , 7°C
Wind Chill: 38°F , 3°C
Dew Point: 27°F , -3°C
Humidity: 49%
Barometer: 1016.9 hPa
Clouds: Mostly cloudy
Visibility: 10 miles , 16 km
Cloud details: Few Clouds 11000 ft
Few Clouds 15000 ft
Mostly cloudy 20000 ft
Mostly cloudy 25000 ft
2019/03/24 20:54 KBUF 242054Z 25013KT 10SM FEW110 FEW150 BKN200 BKN250 07/M03 A3003 RMK AO2 SLP174 T00671033 56013
 
KROC - Rochester, New York, USA
Distance from station: E 51mi, 82km
Updated: 03/24/2019 4:54pm
Overcast
Overcast
 Wind from W
Wind: W 22 mph , 35 km/h, Gust: 32 mph , 52 km/h
Temperature: 52°F , 11°C
Dew Point: 23°F , -5°C
Humidity: 32%
Barometer: 1016.3 hPa
Clouds: Overcast
Visibility: 10 miles , 16 km
Cloud details: Few Clouds 8000 ft
Mostly cloudy 12000 ft
Overcast 18000 ft
2019/03/24 20:54 KROC 242054Z 26019G28KT 10SM FEW080 BKN120 OVC180 11/M05 A3001 RMK AO2 PK WND 28029/2025 SLP169 T01111050 56012
CYSN - St. Catharines A, Ontario, Canada
Distance from station: WNW 25mi, 40km
Updated: 03/24/2019 5:00pm
Mostly cloudy
Mostly cloudy
 Wind from WSW
Wind: WSW 17 mph , 28 km/h, Gust: 24 mph , 39 km/h
Temperature: 50°F , 10°C
Wind Chill: 44°F , 7°C
Dew Point: 30°F , -1°C
Humidity: 47%
Barometer: 1015.9 hPa
Clouds: Mostly cloudy
Visibility: 15 miles , 24 km
Cloud details: Few Clouds 10000 ft
Mostly cloudy 16000 ft
2019/03/24 21:00 CYSN 242100Z 24015G21KT 15SM FEW100 BKN160 10/M01 A3000 RMK AC2AC4 SLP164
 
KOLE - Olean, New York, USA
Distance from station: SSE 63mi, 102km
Updated: 03/24/2019 5:15pm
Overcast
Overcast
 Wind from WSW
Wind: WSW 9 mph , 15 km/h
Temperature: 43°F , 6°C
Wind Chill: 38°F , 3°C
Dew Point: 21°F , -6°C
Humidity: 42%
Barometer: 1016.3 hPa
Clouds: Overcast
Visibility: 10 miles , 16 km
Cloud details: Partly cloudy 5000 ft
Mostly cloudy 7000 ft
Overcast 9500 ft
2019/03/24 21:15 KOLE 242115Z AUTO 24008KT 210V280 10SM SCT050 BKN070 OVC095 06/M06 A3001 RMK AO2
KJHW - Jamestown, New York, USA
Distance from station: SSW 74mi, 119km
Updated: 03/24/2019 4:56pm
Overcast
Overcast
 Wind from WSW
Wind: WSW 10 mph , 17 km/h
Temperature: 45°F , 7°C
Wind Chill: 40°F , 4°C
Dew Point: 25°F , -4°C
Humidity: 46%
Barometer: 1016.9 hPa
Clouds: Overcast
Visibility: 10 miles , 16 km
Cloud details: Few Clouds 7500 ft
Overcast 10000 ft
2019/03/24 20:56 KJHW 242056Z AUTO 24009KT 10SM FEW075 OVC100 07/M04 A3003 RMK AO2 SLP190 T00721044 56018
 
CWWZ - Port Weller (mar, Ontario, Canada
Distance from station: WNW 28mi, 45km
Updated: 03/24/2019 5:00pm

 Wind from WSW
Wind: WSW 6 mph , 9 km/h
Temperature: 48°F , 9°C
Wind Chill: 45°F , 7°C
Dew Point: 34°F , 1°C
Humidity: 58%
2019/03/24 21:00 CWWZ 242100Z AUTO 24005KT 09/01 RMK AO1 SOG 01 8010 SLP163 T00860012
CWPC - Port Colborne(Au, Ontario, Canada
Distance from station: WSW 33mi, 53km
Updated: 03/24/2019 5:00pm

 Wind from W
Wind: W 13 mph , 20 km/h
Temperature: 36°F , 2°C
Wind Chill: 27°F , -3°C
Dew Point: 27°F , -3°C
Humidity: 70%
2019/03/24 21:00 CWPC 242100Z AUTO 28011KT 02/M03 RMK AO1 SLP181 T00231026 55015
 
CXVN - Vineland (au8), Ontario, Canada
Distance from station: W 36mi, 58km
Updated: 03/24/2019 5:00pm

 Wind from WSW
Wind: WSW 17 mph , 28 km/h, Gust: 23 mph , 37 km/h
Temperature: 50°F , 10°C
Wind Chill: 44°F , 7°C
Dew Point: 30°F , -1°C
Humidity: 47%
2019/03/24 21:00 CXVN 242100Z AUTO 25015G20KT 10/M01 RMK AO1 SOG 02 7011 PK WND 24020/2026 SLP157 T01041009
CYTZ - Toronto Il Vor, Ontario, Canada
Distance from station: NW 50mi, 81km
Updated: 03/24/2019 5:00pm
Clear
Clear
 Wind from W
Wind: W 14 mph , 22 km/h
Temperature: 48°F , 9°C
Wind Chill: 42°F , 6°C
Dew Point: 32°F , 0°C
Humidity: 54%
Barometer: 1015.6 hPa
Clouds: Clear
Visibility: 9 miles , 14 km
2019/03/24 21:00 CYTZ 242100Z AUTO 27012KT 9SM CLR 09/00 A2999 RMK SLP158
 
CXTO - Toronto City, Ontario, Canada
Distance from station: NW 52mi, 84km
Updated: 03/24/2019 5:00pm

 
Temperature: 48°F , 9°C
Dew Point: 28°F , -2°C
Humidity: 46%
2019/03/24 21:00 CXTO 242100Z AUTO 09/M02 RMK AO1 SOG 02 7012 SLP156 T00941020
KDKK - Dunkirk, New York, USA
Distance from station: SW 52mi, 84km
Updated: 03/24/2019 4:53pm
Clear
Clear
 Wind from WSW
Wind: WSW 12 mph , 19 km/h
Temperature: 46°F , 8°C
Wind Chill: 40°F , 4°C
Dew Point: 23°F , -5°C
Humidity: 40%
Barometer: 1017.6 hPa
Clouds: Clear
Visibility: 10 miles , 16 km
2019/03/24 20:53 KDKK 242053Z AUTO 25010KT 10SM CLR 08/M05 A3005 RMK AO2 SLP181 T00781050 56016
 
CYOO - Oshawa, Ontario, Canada
Distance from station: N 56mi, 90km
Updated: 03/24/2019 5:00pm
Few Clouds
Few Clouds
 Wind from W
Wind: W 15 mph , 24 km/h, Gust: 23 mph , 37 km/h
Temperature: 50°F , 10°C
Wind Chill: 45°F , 7°C
Dew Point: 28°F , -2°C
Humidity: 43%
Barometer: 1014.6 hPa
Clouds: Few Clouds
Visibility: 9 miles , 14 km
Cloud details: Few Clouds 22000 ft
2019/03/24 21:00 CYOO 242100Z AUTO 26013G20KT 9SM FEW220 10/M02 A2996 RMK SLP153
CWWB - Burlington Piers, Ontario, Canada
Distance from station: WNW 56mi, 91km
Updated: 03/24/2019 5:00pm

 Wind from WSW
Wind: WSW 10 mph , 17 km/h, Gust: 17 mph , 28 km/h
Temperature: 50°F , 10°C
Wind Chill: 46°F , 8°C
Dew Point: 30°F , -1°C
Humidity: 47%
2019/03/24 21:00 CWWB 242100Z AUTO 24009G15KT 10/M01 RMK AO1 SLP159 T01001007 58012
 
CYYZ - Toronto/Pearson, Ontario, Canada
Distance from station: NW 60mi, 96km
Updated: 03/24/2019 5:00pm
Mostly cloudy
Mostly cloudy
 Wind from W
Wind: W 14 mph , 22 km/h, Gust: 22 mph , 35 km/h
Temperature: 48°F , 9°C
Wind Chill: 42°F , 6°C
Dew Point: 30°F , -1°C
Humidity: 50%
Barometer: 1015.2 hPa
Clouds: Mostly cloudy
Visibility: 15 miles , 24 km
Cloud details: Few Clouds 18000 ft
Mostly cloudy 22000 ft
2019/03/24 21:00 CYYZ 242100Z 26012G19KT 15SM FEW180 BKN220 09/M01 A2998 RMK AS2CI5 SLP159
CYKZ - Toronto Buttonvi, Ontario, Canada
Distance from station: NW 62mi, 99km
Updated: 01/03/2019 4:00am
NOT Current
Partly cloudy
Partly cloudy
 Wind from WSW
Wind: WSW 5 mph , 7 km/h
Temperature: 27°F , -3°C
Wind Chill: 21°F , -6°C
Dew Point: 23°F , -5°C
Humidity: 86%
Barometer: 1010.8 hPa
Clouds: Partly cloudy
Visibility: 15 miles , 24 km
Cloud details: Partly cloudy 4000 ft
2019/01/03 09:00 CYKZ 030900Z 25004KT 15SM SCT040 M03/M05 A2985 RMK SC3 LAST STFD OBS FAREWELL SLP118
 
CXHM - Hamilton Rbg Cs, Ontario, Canada
Distance from station: W 62mi, 100km
Updated: 03/24/2019 5:00pm

 Wind from W
Wind: W 9 mph , 15 km/h
Temperature: 52°F , 11°C
Dew Point: 34°F , 1°C
Humidity: 50%
2019/03/24 21:00 CXHM 242100Z AUTO 27008KT 11/01 RMK AO1 PK WND 30017/2043 SLP158 T01070009 56011
KDSV - Dansville, New York, USA
Distance from station: SE 62mi, 100km
Updated: 03/24/2019 4:54pm
Overcast
Overcast
 Wind from calm
Wind: Calm
Temperature: 52°F , 11°C
Dew Point: 19°F , -7°C
Humidity: 28%
Barometer: 1016.3 hPa
Clouds: Overcast
Visibility: 10 miles , 16 km
Cloud details: Few Clouds 6000 ft
Overcast 11000 ft
2019/03/24 20:54 KDSV 242054Z AUTO 00000KT 10SM FEW060 OVC110 11/M07 A3001 RMK AO2 SLP177 T01061067 56013
 
CYHM - Hamilton Airport, Ontario, Canada
Distance from station: W 63mi, 101km
Updated: 03/24/2019 5:00pm
Mostly cloudy
Mostly cloudy
 Wind from WSW
Wind: WSW 17 mph , 28 km/h, Gust: 23 mph , 37 km/h
Temperature: 48°F , 9°C
Wind Chill: 42°F , 6°C
Dew Point: 32°F , 0°C
Humidity: 54%
Barometer: 1015.9 hPa
Clouds: Mostly cloudy
Visibility: 15 miles , 24 km
Cloud details: Few Clouds 4000 ft
Few Clouds 15000 ft
Mostly cloudy 25000 ft
2019/03/24 21:00 CYHM 242100Z 25015G20KT 15SM FEW040 FEW150 BKN250 09/M00 A3000 RMK CU1AC1CI6 CU TR SLP167
CWNC - Cobourg (mars), Ontario, Canada
Distance from station: NNE 63mi, 102km
Updated: 03/24/2019 5:00pm

 Wind from W
Wind: W 10 mph , 17 km/h
Temperature: 41°F , 5°C
Wind Chill: 35°F , 2°C
Dew Point: 32°F , 0°C
Humidity: 70%
2019/03/24 21:00 CWNC 242100Z AUTO 27009KT 05/M00 RMK AO1 SOG 01 6012 SLP149 T00541004